sensor_id;sensor_type;location;lat;lon;timestamp;pressure;altitude;pressure_sealevel;temperature;humidity
41202;BME280;26936;50.524;8.684;2023-04-08T00:02:07;99789.91;;;3.57;100.00
41202;BME280;26936;50.524;8.684;2023-04-08T00:04:33;99796.28;;;3.61;100.00
41202;BME280;26936;50.524;8.684;2023-04-08T00:06:58;99790.69;;;3.61;100.00
41202;BME280;26936;50.524;8.684;2023-04-08T00:09:23;99786.34;;;3.60;100.00
41202;BME280;26936;50.524;8.684;2023-04-08T00:11:48;99788.31;;;3.59;100.00
41202;BME280;26936;50.524;8.684;2023-04-08T00:14:14;99796.66;;;3.59;100.00
41202;BME280;26936;50.524;8.684;2023-04-08T00:16:39;99791.09;;;3.56;100.00
41202;BME280;26936;50.524;8.684;2023-04-08T00:19:05;99791.09;;;3.59;100.00
41202;BME280;26936;50.524;8.684;2023-04-08T00:21:31;99802.22;;;3.59;100.00
41202;BME280;26936;50.524;8.684;2023-04-08T00:23:56;99802.63;;;3.61;100.00
41202;BME280;26936;50.524;8.684;2023-04-08T00:26:21;99803.03;;;3.60;100.00
41202;BME280;26936;50.524;8.684;2023-04-08T00:28:46;99798.66;;;3.55;100.00
41202;BME280;26936;50.524;8.684;2023-04-08T00:31:12;99803.03;;;3.60;100.00
41202;BME280;26936;50.524;8.684;2023-04-08T00:33:37;99797.88;;;3.58;100.00
41202;BME280;26936;50.524;8.684;2023-04-08T00:36:02;99800.25;;;3.60;100.00
41202;BME280;26936;50.524;8.684;2023-04-08T00:38:27;99801.06;;;3.60;100.00
41202;BME280;26936;50.524;8.684;2023-04-08T00:40:55;99800.25;;;3.60;100.00
41202;BME280;26936;50.524;8.684;2023-04-08T00:43:21;99800.66;;;3.55;100.00
41202;BME280;26936;50.524;8.684;2023-04-08T00:45:47;99798.28;;;3.57;100.00
41202;BME280;26936;50.524;8.684;2023-04-08T00:48:12;99801.06;;;3.57;100.00
41202;BME280;26936;50.524;8.684;2023-04-08T00:50:38;99804.63;;;3.54;100.00
41202;BME280;26936;50.524;8.684;2023-04-08T00:53:03;99810.19;;;3.47;100.00
41202;BME280;26936;50.524;8.684;2023-04-08T00:55:28;99807.78;;;3.45;100.00
41202;BME280;26936;50.524;8.684;2023-04-08T00:57:55;99811.75;;;3.44;100.00
41202;BME280;26936;50.524;8.684;2023-04-08T01:00:20;99807.78;;;3.45;100.00
41202;BME280;26936;50.524;8.684;2023-04-08T01:07:58;99812.53;;;3.41;100.00
41202;BME280;26936;50.524;8.684;2023-04-08T01:10:28;99814.16;;;3.39;100.00
41202;BME280;26936;50.524;8.684;2023-04-08T01:12:56;99813.34;;;3.38;100.00
41202;BME280;26936;50.524;8.684;2023-04-08T01:15:23;99807.78;;;3.42;100.00
41202;BME280;26936;50.524;8.684;2023-04-08T01:17:52;99818.13;;;3.41;100.00
41202;BME280;26936;50.524;8.684;2023-04-08T01:20:18;99812.53;;;3.38;100.00
41202;BME280;26936;50.524;8.684;2023-04-08T01:25:35;99814.53;;;3.34;100.00
41202;BME280;26936;50.524;8.684;2023-04-08T01:28:14;99820.09;;;3.30;100.00
41202;BME280;26936;50.524;8.684;2023-04-08T01:30:41;99817.28;;;3.23;100.00
41202;BME280;26936;50.524;8.684;2023-04-08T01:33:11;99820.06;;;3.20;100.00
41202;BME280;26936;50.524;8.684;2023-04-08T01:35:36;99813.66;;;3.12;100.00
41202;BME280;26936;50.524;8.684;2023-04-08T01:38:02;99825.59;;;3.13;100.00
41202;BME280;26936;50.524;8.684;2023-04-08T01:40:31;99828.34;;;3.06;100.00
41202;BME280;26936;50.524;8.684;2023-04-08T01:42:59;99821.59;;;3.03;100.00
41202;BME280;26936;50.524;8.684;2023-04-08T01:45:26;99818.78;;;3.00;100.00
41202;BME280;26936;50.524;8.684;2023-04-08T01:47:52;99814.41;;;2.92;100.00
41202;BME280;26936;50.524;8.684;2023-04-08T01:50:20;99819.94;;;2.88;100.00
41202;BME280;26936;50.524;8.684;2023-04-08T01:52:48;99811.56;;;2.81;100.00
41202;BME280;26936;50.524;8.684;2023-04-08T01:55:14;99817.09;;;2.77;100.00
41202;BME280;26936;50.524;8.684;2023-04-08T01:57:43;99822.25;;;2.79;100.00
41202;BME280;26936;50.524;8.684;2023-04-08T02:00:12;99806.78;;;2.78;100.00
41202;BME280;26936;50.524;8.684;2023-04-08T02:02:39;99821.06;;;2.76;100.00
41202;BME280;26936;50.524;8.684;2023-04-08T02:05:06;99820.66;;;2.74;100.00
41202;BME280;26936;50.524;8.684;2023-04-08T02:07:32;99825.00;;;2.68;100.00
41202;BME280;26936;50.524;8.684;2023-04-08T02:09:57;99824.56;;;2.63;100.00
41202;BME280;26936;50.524;8.684;2023-04-08T02:12:23;99829.75;;;2.64;100.00
41202;BME280;26936;50.524;8.684;2023-04-08T02:14:49;99823.78;;;2.59;100.00
41202;BME280;26936;50.524;8.684;2023-04-08T02:20:02;99822.91;;;2.51;100.00
41202;BME280;26936;50.524;8.684;2023-04-08T02:22:37;99826.91;;;2.54;100.00
41202;BME280;26936;50.524;8.684;2023-04-08T02:25:06;99828.88;;;2.50;100.00
41202;BME280;26936;50.524;8.684;2023-04-08T02:27:33;99836.78;;;2.44;100.00
41202;BME280;26936;50.524;8.684;2023-04-08T02:29:59;99839.97;;;2.43;100.00
41202;BME280;26936;50.524;8.684;2023-04-08T02:32:27;99833.22;;;2.44;100.00
41202;BME280;26936;50.524;8.684;2023-04-08T02:34:55;99838.31;;;2.38;100.00
41202;BME280;26936;50.524;8.684;2023-04-08T02:37:20;99840.72;;;2.40;100.00
41202;BME280;26936;50.524;8.684;2023-04-08T02:39:46;99841.13;;;2.42;100.00
41202;BME280;26936;50.524;8.684;2023-04-08T02:42:11;99836.78;;;2.41;100.00
41202;BME280;26936;50.524;8.684;2023-04-08T02:44:36;99843.09;;;2.38;100.00
41202;BME280;26936;50.524;8.684;2023-04-08T02:47:01;99845.09;;;2.41;100.00
41202;BME280;26936;50.524;8.684;2023-04-08T02:49:27;99840.72;;;2.36;100.00
41202;BME280;26936;50.524;8.684;2023-04-08T02:51:52;99846.28;;;2.36;100.00
41202;BME280;26936;50.524;8.684;2023-04-08T02:54:17;99842.28;;;2.34;100.00
41202;BME280;26936;50.524;8.684;2023-04-08T02:56:42;99851.00;;;2.32;100.00
41202;BME280;26936;50.524;8.684;2023-04-08T02:59:08;99854.16;;;2.31;100.00
41202;BME280;26936;50.524;8.684;2023-04-08T03:01:33;99850.94;;;2.22;100.00
41202;BME280;26936;50.524;8.684;2023-04-08T03:03:58;99856.50;;;2.25;100.00
41202;BME280;26936;50.524;8.684;2023-04-08T03:06:23;99851.31;;;2.24;100.00
41202;BME280;26936;50.524;8.684;2023-04-08T03:08:49;99859.63;;;2.17;100.00
41202;BME280;26936;50.524;8.684;2023-04-08T03:11:15;99860.78;;;2.16;100.00
41202;BME280;26936;50.524;8.684;2023-04-08T03:13:40;99863.53;;;2.12;100.00
41202;BME280;26936;50.524;8.684;2023-04-08T03:16:06;99867.13;;;2.13;100.00
41202;BME280;26936;50.524;8.684;2023-04-08T03:18:31;99861.16;;;2.11;100.00
41202;BME280;26936;50.524;8.684;2023-04-08T03:20:56;99857.56;;;2.07;100.00
41202;BME280;26936;50.524;8.684;2023-04-08T03:23:22;99863.09;;;2.03;100.00
41202;BME280;26936;50.524;8.684;2023-04-08T03:25:47;99865.06;;;2.03;100.00
41202;BME280;26936;50.524;8.684;2023-04-08T03:28:12;99858.69;;;1.99;100.00
41202;BME280;26936;50.524;8.684;2023-04-08T03:30:37;99857.84;;;1.95;100.00
41202;BME280;26936;50.524;8.684;2023-04-08T03:33:03;99861.81;;;1.94;100.00
41202;BME280;26936;50.524;8.684;2023-04-08T03:35:32;99857.47;;;1.96;100.00
41202;BME280;26936;50.524;8.684;2023-04-08T03:37:57;99857.88;;;1.98;100.00
41202;BME280;26936;50.524;8.684;2023-04-08T03:40:22;99864.59;;;1.94;100.00
41202;BME280;26936;50.524;8.684;2023-04-08T03:42:48;99862.97;;;1.93;100.00
41202;BME280;26936;50.524;8.684;2023-04-08T03:45:13;99857.44;;;1.93;100.00
41202;BME280;26936;50.524;8.684;2023-04-08T03:47:40;99866.59;;;1.97;100.00
41202;BME280;26936;50.524;8.684;2023-04-08T03:50:05;99869.00;;;1.98;100.00
41202;BME280;26936;50.524;8.684;2023-04-08T03:52:31;99869.81;;;1.99;100.00
41202;BME280;26936;50.524;8.684;2023-04-08T03:54:56;99861.84;;;2.01;100.00
41202;BME280;26936;50.524;8.684;2023-04-08T03:57:21;99867.06;;;2.02;100.00
41202;BME280;26936;50.524;8.684;2023-04-08T03:59:46;99868.63;;;2.03;100.00
41202;BME280;26936;50.524;8.684;2023-04-08T04:02:12;99873.81;;;2.05;100.00
41202;BME280;26936;50.524;8.684;2023-04-08T04:04:37;99866.31;;;2.09;100.00
41202;BME280;26936;50.524;8.684;2023-04-08T04:07:02;99861.16;;;2.11;100.00
41202;BME280;26936;50.524;8.684;2023-04-08T04:09:27;99865.16;;;2.13;100.00
41202;BME280;26936;50.524;8.684;2023-04-08T04:11:53;99863.19;;;2.17;100.00
41202;BME280;26936;50.524;8.684;2023-04-08T04:14:18;99864.00;;;2.18;100.00
41202;BME280;26936;50.524;8.684;2023-04-08T04:16:43;99865.59;;;2.22;100.00
41202;BME280;26936;50.524;8.684;2023-04-08T04:19:09;99874.72;;;2.19;100.00
41202;BME280;26936;50.524;8.684;2023-04-08T04:21:34;99875.53;;;2.20;100.00
41202;BME280;26936;50.524;8.684;2023-04-08T04:23:59;99880.66;;;2.18;100.00
41202;BME280;26936;50.524;8.684;2023-04-08T04:26:24;99884.63;;;2.20;100.00
41202;BME280;26936;50.524;8.684;2023-04-08T04:28:50;99877.88;;;2.18;100.00
41202;BME280;26936;50.524;8.684;2023-04-08T04:31:22;99879.09;;;2.17;100.00
41202;BME280;26936;50.524;8.684;2023-04-08T04:33:50;99879.09;;;2.20;100.00
41202;BME280;26936;50.524;8.684;2023-04-08T04:36:15;99883.06;;;2.19;100.00
41202;BME280;26936;50.524;8.684;2023-04-08T04:38:40;99877.03;;;2.14;100.00
41202;BME280;26936;50.524;8.684;2023-04-08T04:41:07;99881.88;;;2.17;100.00
41202;BME280;26936;50.524;8.684;2023-04-08T04:43:32;99871.91;;;2.16;100.00
41202;BME280;26936;50.524;8.684;2023-04-08T04:45:57;99877.91;;;2.21;100.00
41202;BME280;26936;50.524;8.684;2023-04-08T04:48:23;99881.13;;;2.23;100.00
41202;BME280;26936;50.524;8.684;2023-04-08T04:50:55;99878.72;;;2.22;100.00
41202;BME280;26936;50.524;8.684;2023-04-08T04:53:21;99879.47;;;2.19;100.00
41202;BME280;26936;50.524;8.684;2023-04-08T04:55:46;99882.66;;;2.21;100.00
41202;BME280;26936;50.524;8.684;2023-04-08T04:58:11;99888.19;;;2.17;100.00
41202;BME280;26936;50.524;8.684;2023-04-08T05:00:37;99892.16;;;2.16;100.00
41202;BME280;26936;50.524;8.684;2023-04-08T05:03:02;99894.94;;;2.16;100.00
41202;BME280;26936;50.524;8.684;2023-04-08T05:05:27;99899.34;;;2.21;100.00
41202;BME280;26936;50.524;8.684;2023-04-08T05:07:52;99892.59;;;2.18;100.00
41202;BME280;26936;50.524;8.684;2023-04-08T05:10:18;99896.94;;;2.19;100.00
41202;BME280;26936;50.524;8.684;2023-04-08T05:12:43;99894.22;;;2.23;100.00
41202;BME280;26936;50.524;8.684;2023-04-08T05:15:09;99893.81;;;2.24;100.00
41202;BME280;26936;50.524;8.684;2023-04-08T05:17:34;99898.56;;;2.24;100.00
41202;BME280;26936;50.524;8.684;2023-04-08T05:19:59;99899.38;;;2.24;100.00
41202;BME280;26936;50.524;8.684;2023-04-08T05:22:24;99903.81;;;2.32;100.00
41202;BME280;26936;50.524;8.684;2023-04-08T05:24:50;99899.47;;;2.35;100.00
41202;BME280;26936;50.524;8.684;2023-04-08T05:27:15;99911.00;;;2.40;100.00
41202;BME280;26936;50.524;8.684;2023-04-08T05:29:40;99912.63;;;2.41;100.00
41202;BME280;26936;50.524;8.684;2023-04-08T05:32:06;99905.09;;;2.45;100.00
41202;BME280;26936;50.524;8.684;2023-04-08T05:34:31;99906.31;;;2.48;100.00
41202;BME280;26936;50.524;8.684;2023-04-08T05:36:57;99899.59;;;2.52;100.00
41202;BME280;26936;50.524;8.684;2023-04-08T05:39:22;99902.06;;;2.61;100.00
41202;BME280;26936;50.524;8.684;2023-04-08T05:41:47;99907.22;;;2.62;100.00
41202;BME280;26936;50.524;8.684;2023-04-08T05:44:12;99907.22;;;2.66;100.00
41202;BME280;26936;50.524;8.684;2023-04-08T05:46:38;99898.53;;;2.67;100.00
41202;BME280;26936;50.524;8.684;2023-04-08T05:49:04;99906.47;;;2.72;100.00
41202;BME280;26936;50.524;8.684;2023-04-08T05:51:29;99906.09;;;2.74;100.00
41202;BME280;26936;50.524;8.684;2023-04-08T05:53:54;99913.69;;;2.81;100.00
41202;BME280;26936;50.524;8.684;2023-04-08T05:56:20;99919.25;;;2.84;100.00
41202;BME280;26936;50.524;8.684;2023-04-08T05:58:45;99913.31;;;2.89;100.00
41202;BME280;26936;50.524;8.684;2023-04-08T06:01:11;99926.47;;;2.92;100.00
41202;BME280;26936;50.524;8.684;2023-04-08T06:03:36;99924.13;;;2.98;100.00
41202;BME280;26936;50.524;8.684;2023-04-08T06:06:01;99924.13;;;2.98;100.00
41202;BME280;26936;50.524;8.684;2023-04-08T06:08:27;99925.75;;;3.06;100.00
41202;BME280;26936;50.524;8.684;2023-04-08T06:10:52;99926.97;;;3.08;100.00
41202;BME280;26936;50.524;8.684;2023-04-08T06:13:17;99932.97;;;3.17;100.00
41202;BME280;26936;50.524;8.684;2023-04-08T06:15:44;99937.75;;;3.20;100.00
41202;BME280;26936;50.524;8.684;2023-04-08T06:18:09;99938.19;;;3.26;100.00
41202;BME280;26936;50.524;8.684;2023-04-08T06:20:35;99934.63;;;3.32;100.00
41202;BME280;26936;50.524;8.684;2023-04-08T06:23:00;99931.88;;;3.39;100.00
41202;BME280;26936;50.524;8.684;2023-04-08T06:25:25;99951.75;;;3.41;100.00
41202;BME280;26936;50.524;8.684;2023-04-08T06:27:51;99946.63;;;3.47;100.00
41202;BME280;26936;50.524;8.684;2023-04-08T06:30:16;99946.25;;;3.52;100.00
41202;BME280;26936;50.524;8.684;2023-04-08T06:32:41;99941.50;;;3.59;100.00
41202;BME280;26936;50.524;8.684;2023-04-08T06:35:07;99946.66;;;3.57;100.00
41202;BME280;26936;50.524;8.684;2023-04-08T06:37:33;99949.06;;;3.62;100.00
41202;BME280;26936;50.524;8.684;2023-04-08T06:40:03;99951.44;;;3.64;100.00
41202;BME280;26936;50.524;8.684;2023-04-08T06:42:28;99946.69;;;3.64;100.00
41202;BME280;26936;50.524;8.684;2023-04-08T06:44:54;99952.25;;;3.64;100.00
41202;BME280;26936;50.524;8.684;2023-04-08T06:47:19;99953.84;;;3.69;100.00
41202;BME280;26936;50.524;8.684;2023-04-08T06:49:44;99958.25;;;3.70;100.00
41202;BME280;26936;50.524;8.684;2023-04-08T06:52:10;99964.25;;;3.79;100.00
41202;BME280;26936;50.524;8.684;2023-04-08T06:54:35;99969.81;;;3.79;100.00
41202;BME280;26936;50.524;8.684;2023-04-08T06:57:01;99979.72;;;3.69;100.00
41202;BME280;26936;50.524;8.684;2023-04-08T06:59:26;99976.19;;;3.83;100.00
41202;BME280;26936;50.524;8.684;2023-04-08T07:01:51;99983.38;;;3.91;100.00
41202;BME280;26936;50.524;8.684;2023-04-08T07:04:16;99987.38;;;3.97;100.00
41202;BME280;26936;50.524;8.684;2023-04-08T07:06:42;99993.38;;;3.99;100.00
41202;BME280;26936;50.524;8.684;2023-04-08T07:09:07;99989.34;;;3.96;100.00
41202;BME280;26936;50.524;8.684;2023-04-08T07:11:33;99983.41;;;4.01;100.00
41202;BME280;26936;50.524;8.684;2023-04-08T07:13:58;99994.16;;;4.06;100.00
41202;BME280;26936;50.524;8.684;2023-04-08T07:16:23;99992.97;;;4.04;100.00
41202;BME280;26936;50.524;8.684;2023-04-08T07:18:48;99998.16;;;4.05;100.00
41202;BME280;26936;50.524;8.684;2023-04-08T07:21:15;99999.78;;;4.17;100.00
41202;BME280;26936;50.524;8.684;2023-04-08T07:23:40;100006.97;;;4.29;100.00
41202;BME280;26936;50.524;8.684;2023-04-08T07:26:06;100005.38;;;4.38;100.00
41202;BME280;26936;50.524;8.684;2023-04-08T07:28:31;100004.63;;;4.48;100.00
41202;BME280;26936;50.524;8.684;2023-04-08T07:31:10;100003.81;;;4.55;100.00
41202;BME280;26936;50.524;8.684;2023-04-08T07:33:36;100008.22;;;4.66;100.00
41202;BME280;26936;50.524;8.684;2023-04-08T07:36:01;100004.63;;;4.69;100.00
41202;BME280;26936;50.524;8.684;2023-04-08T07:38:26;100009.41;;;4.79;100.00
41202;BME280;26936;50.524;8.684;2023-04-08T07:40:52;100012.97;;;4.87;100.00
41202;BME280;26936;50.524;8.684;2023-04-08T07:43:17;100016.19;;;4.89;100.00
41202;BME280;26936;50.524;8.684;2023-04-08T07:45:43;100016.19;;;4.92;100.00
41202;BME280;26936;50.524;8.684;2023-04-08T07:48:08;100014.97;;;5.00;100.00
41202;BME280;26936;50.524;8.684;2023-04-08T07:50:35;100013.38;;;4.99;100.00
41202;BME280;26936;50.524;8.684;2023-04-08T07:53:00;100020.56;;;5.00;100.00
41202;BME280;26936;50.524;8.684;2023-04-08T07:55:26;100010.97;;;5.05;100.00
41202;BME280;26936;50.524;8.684;2023-04-08T07:57:51;100013.38;;;5.03;100.00
41202;BME280;26936;50.524;8.684;2023-04-08T08:00:16;100016.97;;;5.14;100.00
41202;BME280;26936;50.524;8.684;2023-04-08T08:02:45;100016.53;;;5.26;100.00
41202;BME280;26936;50.524;8.684;2023-04-08T08:05:12;100015.34;;;5.27;100.00
41202;BME280;26936;50.524;8.684;2023-04-08T08:07:37;100026.47;;;5.34;100.00
41202;BME280;26936;50.524;8.684;2023-04-08T08:10:02;100022.88;;;5.40;100.00
41202;BME280;26936;50.524;8.684;2023-04-08T08:12:27;100039.22;;;5.49;100.00
41202;BME280;26936;50.524;8.684;2023-04-08T08:14:53;100031.25;;;5.47;100.00
41202;BME280;26936;50.524;8.684;2023-04-08T08:17:22;100025.19;;;5.67;100.00
41202;BME280;26936;50.524;8.684;2023-04-08T08:19:48;100029.56;;;5.75;100.00
41202;BME280;26936;50.524;8.684;2023-04-08T08:22:14;100025.19;;;5.74;100.00
41202;BME280;26936;50.524;8.684;2023-04-08T08:24:39;100034.31;;;5.81;100.00
41202;BME280;26936;50.524;8.684;2023-04-08T08:27:04;100037.53;;;5.90;100.00
41202;BME280;26936;50.524;8.684;2023-04-08T08:29:30;100037.53;;;5.83;100.00
41202;BME280;26936;50.524;8.684;2023-04-08T08:31:55;100043.06;;;5.97;100.00
41202;BME280;26936;50.524;8.684;2023-04-08T08:34:21;100044.63;;;6.09;100.00
41202;BME280;26936;50.524;8.684;2023-04-08T08:36:47;100043.84;;;6.08;100.00
41202;BME280;26936;50.524;8.684;2023-04-08T08:39:12;100053.00;;;6.09;100.00
41202;BME280;26936;50.524;8.684;2023-04-08T08:41:37;100054.19;;;6.11;100.00
41202;BME280;26936;50.524;8.684;2023-04-08T08:44:06;100055.78;;;6.09;100.00
41202;BME280;26936;50.524;8.684;2023-04-08T08:46:33;100063.75;;;6.21;100.00
41202;BME280;26936;50.524;8.684;2023-04-08T08:48:58;100060.91;;;6.28;100.00
41202;BME280;26936;50.524;8.684;2023-04-08T08:51:24;100069.72;;;6.26;100.00
41202;BME280;26936;50.524;8.684;2023-04-08T08:53:51;100073.25;;;6.37;100.00
41202;BME280;26936;50.524;8.684;2023-04-08T08:56:17;100071.22;;;6.41;100.00
41202;BME280;26936;50.524;8.684;2023-04-08T08:58:42;100079.19;;;6.46;100.00
41202;BME280;26936;50.524;8.684;2023-04-08T09:04:16;100078.34;;;6.53;100.00
41202;BME280;26936;50.524;8.684;2023-04-08T09:06:44;100076.75;;;6.52;100.00
41202;BME280;26936;50.524;8.684;2023-04-08T09:09:10;100077.53;;;6.56;100.00
41202;BME280;26936;50.524;8.684;2023-04-08T09:11:37;100083.16;;;6.52;100.00
41202;BME280;26936;50.524;8.684;2023-04-08T09:14:07;100077.56;;;6.52;100.00
41202;BME280;26936;50.524;8.684;2023-04-08T09:16:41;100084.34;;;6.51;100.00
41202;BME280;26936;50.524;8.684;2023-04-08T09:19:08;100083.94;;;6.53;100.00
41202;BME280;26936;50.524;8.684;2023-04-08T09:21:37;100084.34;;;6.51;100.00
41202;BME280;26936;50.524;8.684;2023-04-08T09:24:05;100078.78;;;6.48;100.00
41202;BME280;26936;50.524;8.684;2023-04-08T09:26:30;100076.81;;;6.41;100.00
41202;BME280;26936;50.524;8.684;2023-04-08T09:29:00;100078.75;;;6.55;100.00
41202;BME280;26936;50.524;8.684;2023-04-08T09:31:28;100089.88;;;6.65;100.00
41202;BME280;26936;50.524;8.684;2023-04-08T09:33:58;100085.06;;;6.62;100.00
41202;BME280;26936;50.524;8.684;2023-04-08T09:36:24;100089.03;;;6.72;100.00
41202;BME280;26936;50.524;8.684;2023-04-08T09:38:51;100090.94;;;6.82;100.00
41202;BME280;26936;50.524;8.684;2023-04-08T09:41:17;100096.88;;;6.95;100.00
41202;BME280;26936;50.524;8.684;2023-04-08T09:43:53;100095.19;;;7.08;100.00
41202;BME280;26936;50.524;8.684;2023-04-08T09:46:25;100097.19;;;7.04;100.00
41202;BME280;26936;50.524;8.684;2023-04-08T09:49:04;100095.44;;;7.24;100.00
41202;BME280;26936;50.524;8.684;2023-04-08T09:51:52;100091.06;;;7.23;100.00
41202;BME280;26936;50.524;8.684;2023-04-08T09:54:22;100090.97;;;7.30;100.00
41202;BME280;26936;50.524;8.684;2023-04-08T09:57:00;100090.47;;;7.42;100.00
41202;BME280;26936;50.524;8.684;2023-04-08T09:59:29;100098.41;;;7.50;100.00
41202;BME280;26936;50.524;8.684;2023-04-08T10:02:00;100092.50;;;7.38;100.00
41202;BME280;26936;50.524;8.684;2023-04-08T10:04:28;100095.19;;;7.52;100.00
41202;BME280;26936;50.524;8.684;2023-04-08T10:07:03;100095.06;;;7.62;100.00
41202;BME280;26936;50.524;8.684;2023-04-08T10:09:30;100090.22;;;7.66;100.00
41202;BME280;26936;50.524;8.684;2023-04-08T10:11:56;100093.81;;;7.67;100.00
41202;BME280;26936;50.524;8.684;2023-04-08T10:14:22;100098.06;;;7.82;100.00
41202;BME280;26936;50.524;8.684;2023-04-08T10:16:47;100091.19;;;7.86;100.00
41202;BME280;26936;50.524;8.684;2023-04-08T10:19:35;100093.25;;;7.82;100.00
41202;BME280;26936;50.524;8.684;2023-04-08T10:27:41;100082.25;;;7.98;98.00
41202;BME280;26936;50.524;8.684;2023-04-08T10:32:56;100089.44;;;7.99;98.00
41202;BME280;26936;50.524;8.684;2023-04-08T10:35:31;100083.84;;;7.99;97.06
41202;BME280;26936;50.524;8.684;2023-04-08T10:37:57;100092.16;;;8.06;97.92
41202;BME280;26936;50.524;8.684;2023-04-08T10:40:23;100076.47;;;8.12;96.81
41202;BME280;26936;50.524;8.684;2023-04-08T10:42:57;100088.50;;;8.13;97.53
41202;BME280;26936;50.524;8.684;2023-04-08T10:45:23;100081.69;;;8.14;96.43
41202;BME280;26936;50.524;8.684;2023-04-08T10:47:49;100076.75;;;8.21;98.07
41202;BME280;26936;50.524;8.684;2023-04-08T10:50:15;100080.25;;;8.33;95.79
41202;BME280;26936;50.524;8.684;2023-04-08T10:52:51;100075.34;;;8.40;96.54
41202;BME280;26936;50.524;8.684;2023-04-08T10:55:24;100067.72;;;8.41;96.92
41202;BME280;26936;50.524;8.684;2023-04-08T10:57:50;100072.78;;;8.79;100.00
41202;BME280;26936;50.524;8.684;2023-04-08T11:00:31;100074.41;;;8.77;100.00
41202;BME280;26936;50.524;8.684;2023-04-08T11:03:01;100081.25;;;8.76;96.49
41202;BME280;26936;50.524;8.684;2023-04-08T11:05:27;100088.78;;;8.82;97.05
41202;BME280;26936;50.524;8.684;2023-04-08T11:07:52;100078.41;;;9.02;98.06
41202;BME280;26936;50.524;8.684;2023-04-08T11:10:17;100071.84;;;9.12;96.52
41202;BME280;26936;50.524;8.684;2023-04-08T11:12:43;100073.44;;;9.13;94.51
41202;BME280;26936;50.524;8.684;2023-04-08T11:15:09;100076.06;;;9.24;93.73
41202;BME280;26936;50.524;8.684;2023-04-08T11:17:35;100065.19;;;9.26;92.91
41202;BME280;26936;50.524;8.684;2023-04-08T11:20:00;100075.03;;;9.37;93.00
41202;BME280;26936;50.524;8.684;2023-04-08T11:22:27;100080.53;;;9.44;93.66
41202;BME280;26936;50.524;8.684;2023-04-08T11:24:54;100074.28;;;9.56;93.20
41202;BME280;26936;50.524;8.684;2023-04-08T11:27:20;100083.19;;;9.51;93.53
41202;BME280;26936;50.524;8.684;2023-04-08T11:29:47;100077.53;;;9.55;91.60
41202;BME280;26936;50.524;8.684;2023-04-08T11:32:13;100077.91;;;9.57;92.04
41202;BME280;26936;50.524;8.684;2023-04-08T11:34:38;100076.47;;;9.69;92.17
41202;BME280;26936;50.524;8.684;2023-04-08T11:37:04;100076.19;;;9.83;92.80
41202;BME280;26936;50.524;8.684;2023-04-08T11:39:29;100068.63;;;9.99;91.76
41202;BME280;26936;50.524;8.684;2023-04-08T11:41:55;100074.19;;;10.03;92.42
41202;BME280;26936;50.524;8.684;2023-04-08T11:44:31;100079.84;;;10.22;91.27
41202;BME280;26936;50.524;8.684;2023-04-08T11:46:57;100083.97;;;10.18;90.00
41202;BME280;26936;50.524;8.684;2023-04-08T11:49:22;100078.97;;;10.25;89.55
41202;BME280;26936;50.524;8.684;2023-04-08T11:51:58;100079.06;;;10.22;90.20
41202;BME280;26936;50.524;8.684;2023-04-08T11:54:31;100082.28;;;10.40;88.51
41202;BME280;26936;50.524;8.684;2023-04-08T11:56:57;100086.84;;;10.34;88.56
41202;BME280;26936;50.524;8.684;2023-04-08T11:59:23;100084.81;;;10.54;88.26
41202;BME280;26936;50.524;8.684;2023-04-08T12:01:50;100077.97;;;10.71;86.97
41202;BME280;26936;50.524;8.684;2023-04-08T12:04:16;100078.72;;;10.91;86.13
41202;BME280;26936;50.524;8.684;2023-04-08T12:06:41;100076.00;;;11.04;86.04
41202;BME280;26936;50.524;8.684;2023-04-08T12:09:07;100074.88;;;11.01;86.05
41202;BME280;26936;50.524;8.684;2023-04-08T12:11:33;100086.31;;;10.94;85.68
41202;BME280;26936;50.524;8.684;2023-04-08T12:13:58;100082.75;;;10.90;85.50
41202;BME280;26936;50.524;8.684;2023-04-08T12:16:24;100078.53;;;10.82;85.22
41202;BME280;26936;50.524;8.684;2023-04-08T12:18:49;100080.47;;;10.85;86.32
41202;BME280;26936;50.524;8.684;2023-04-08T12:21:15;100086.66;;;10.96;86.33
41202;BME280;26936;50.524;8.684;2023-04-08T12:23:40;100089.56;;;11.09;85.50
41202;BME280;26936;50.524;8.684;2023-04-08T12:26:05;100083.69;;;11.19;84.08
41202;BME280;26936;50.524;8.684;2023-04-08T12:28:31;100077.41;;;11.28;84.89
41202;BME280;26936;50.524;8.684;2023-04-08T12:30:56;100081.75;;;11.32;83.32
41202;BME280;26936;50.524;8.684;2023-04-08T12:33:21;100078.81;;;11.20;84.42
41202;BME280;26936;50.524;8.684;2023-04-08T12:35:47;100073.00;;;11.27;83.66
41202;BME280;26936;50.524;8.684;2023-04-08T12:38:12;100080.56;;;11.46;84.34
41202;BME280;26936;50.524;8.684;2023-04-08T12:40:38;100078.66;;;11.43;84.86
41202;BME280;26936;50.524;8.684;2023-04-08T12:43:03;100081.03;;;11.44;84.77
41202;BME280;26936;50.524;8.684;2023-04-08T12:45:28;100059.75;;;11.56;83.54
41202;BME280;26936;50.524;8.684;2023-04-08T12:47:53;100062.50;;;11.75;82.77
41202;BME280;26936;50.524;8.684;2023-04-08T12:50:19;100062.41;;;11.79;84.38
41202;BME280;26936;50.524;8.684;2023-04-08T12:52:44;100063.13;;;11.67;84.42
41202;BME280;26936;50.524;8.684;2023-04-08T12:55:09;100068.66;;;11.54;84.13
41202;BME280;26936;50.524;8.684;2023-04-08T12:57:34;100063.56;;;11.49;84.79
41202;BME280;26936;50.524;8.684;2023-04-08T13:00:00;100062.44;;;11.47;85.70
41202;BME280;26936;50.524;8.684;2023-04-08T13:02:26;100064.72;;;11.52;86.07
41202;BME280;26936;50.524;8.684;2023-04-08T13:04:52;100060.22;;;11.38;84.92
41202;BME280;26936;50.524;8.684;2023-04-08T13:07:18;100060.22;;;11.54;84.95
41202;BME280;26936;50.524;8.684;2023-04-08T13:09:43;100057.97;;;11.62;84.67
41202;BME280;26936;50.524;8.684;2023-04-08T13:12:08;100061.34;;;11.73;85.04
41202;BME280;26936;50.524;8.684;2023-04-08T13:14:34;100057.56;;;11.63;84.45
41202;BME280;26936;50.524;8.684;2023-04-08T13:17:00;100056.25;;;11.68;84.63